Terminal Aerodrome Forecast
Issued by NWS Brownsville, TX

Current Version | Previous Version | Text Only | Print | Product List | Glossary On
Versions: 1 2 3 4 5 6 7 8 9 10 11 12 13 14 15 16 17 18 19
000
FTUS44 KBRO 071400 AAB
TAFHRL
TAF AMD
KHRL 071400Z 0714/0812 15016KT 6SM BR SCT030
      TEMPO 0714/0717 BKN020
     FM080300 15013KT P6SM FEW250=

USA.gov is the U.S. government's official web portal to all federal, state and local government web resources and services.